Time;durP1;ratioP1;P1;durP2;ratioP2;P2;SDS_P1;SDS_P2;PMS_P1;PMS_P2;Temp;Humidity;BMP_temperature;BMP_pressure;BME280_temperature;BME280_humidity;BME280_pressure;Samples;Min_cycle;Max_cycle;Signal;HPM_P1;HPM_P2
2023/11/04 00:00:37;;;;;;;18.00;15.90;;;;;;;10.68;96.54;98625.28;106040;1253;61597;-76
2023/11/04 00:03:25;;;;;;;24.30;18.60;;;;;;;10.75;96.54;98610.73;105968;1253;60533;-78
2023/11/04 00:05:53;;;;;;;21.50;18.20;;;;;;;10.72;96.55;98596.40;106001;1259;73903;-79
2023/11/04 00:08:20;;;;;;;21.00;17.80;;;;;;;10.70;96.63;98589.77;106053;1254;70495;-79
2023/11/04 00:10:49;;;;;;;19.20;15.30;;;;;;;10.75;96.35;98576.88;106186;1253;72782;-78
2023/11/04 00:13:17;;;;;;;21.50;17.00;;;;;;;10.80;96.20;98571.80;106328;1260;60559;-79
2023/11/04 00:15:45;;;;;;;21.50;17.00;;;;;;;10.76;96.58;98569.13;106206;1254;60293;-79
2023/11/04 00:18:12;;;;;;;18.10;16.10;;;;;;;10.70;96.90;98564.85;106363;1258;74007;-79
2023/11/04 00:20:40;;;;;;;18.90;16.40;;;;;;;10.74;96.82;98547.83;106094;1253;70146;-78
2023/11/04 00:23:17;;;;;;;18.60;16.40;;;;;;;10.76;96.78;98538.23;106389;1257;72657;-75
2023/11/04 00:25:45;;;;;;;18.60;15.30;;;;;;;10.73;97.05;98536.05;106497;1259;60559;-76
2023/11/04 00:28:12;;;;;;;16.90;14.80;;;;;;;10.73;97.23;98545.48;106391;1257;60415;-79
2023/11/04 00:30:40;;;;;;;17.40;14.60;;;;;;;10.82;96.59;98537.36;106056;1259;72431;-79
2023/11/04 00:33:07;;;;;;;15.90;14.20;;;;;;;10.87;96.79;98534.14;107744;1253;68910;-79
2023/11/04 00:35:35;;;;;;;16.20;14.10;;;;;;;10.84;96.73;98520.15;107159;1264;71381;-80
2023/11/04 00:38:02;;;;;;;16.00;13.20;;;;;;;10.86;96.51;98523.67;105927;1254;61710;-81
2023/11/04 00:40:30;;;;;;;15.40;13.80;;;;;;;10.92;96.51;98542.44;105876;1259;60623;-81
2023/11/04 00:42:57;;;;;;;15.90;14.30;;;;;;;10.90;96.50;98534.92;106419;1253;73847;-82
2023/11/04 00:45:25;;;;;;;15.30;13.70;;;;;;;10.86;96.48;98551.59;108245;1259;70012;-79
2023/11/04 00:47:52;;;;;;;16.40;13.50;;;;;;;10.93;96.29;98558.48;106375;1254;71901;-79
2023/11/04 00:50:20;;;;;;;14.30;12.60;;;;;;;10.96;96.22;98551.67;106194;1257;60416;-79
2023/11/04 00:52:48;;;;;;;16.60;14.70;;;;;;;10.94;96.20;98552.29;105812;1258;60348;-78
2023/11/04 00:55:17;;;;;;;15.20;13.10;;;;;;;10.91;96.30;98549.11;105789;1267;73847;-81
2023/11/04 00:57:45;;;;;;;15.10;13.00;;;;;;;10.99;96.14;98556.13;106585;1259;70580;-80
2023/11/04 01:00:13;;;;;;;15.40;13.80;;;;;;;11.02;96.12;98553.36;106491;1260;72685;-77
2023/11/04 01:02:41;;;;;;;15.50;13.70;;;;;;;10.96;96.26;98557.39;105947;1256;60543;-76
2023/11/04 01:05:11;;;;;;;15.20;13.00;;;;;;;10.92;96.51;98562.94;105837;1259;60480;-77
2023/11/04 01:07:38;;;;;;;15.60;13.90;;;;;;;10.95;96.81;98551.25;105937;1257;72615;-77
2023/11/04 01:10:07;;;;;;;18.70;16.00;;;;;;;10.96;96.72;98565.19;105816;1260;68104;-76
2023/11/04 01:12:34;;;;;;;16.20;14.10;;;;;;;10.88;97.13;98549.44;105834;1257;72538;-78
2023/11/04 01:15:02;;;;;;;15.80;13.60;;;;;;;10.85;97.63;98547.55;106024;1254;61692;-80
2023/11/04 01:17:30;;;;;;;15.90;14.20;;;;;;;10.91;97.45;98516.20;105918;1257;60563;-82
2023/11/04 01:19:57;;;;;;;16.20;14.50;;;;;;;10.93;97.40;98505.34;105472;1251;72690;-77
2023/11/04 01:22:24;;;;;;;17.50;15.50;;;;;;;10.89;97.79;98519.71;106235;1260;70878;-76
2023/11/04 01:24:52;;;;;;;14.80;12.50;;;;;;;10.88;97.74;98522.29;106037;1254;73547;-74
2023/11/04 01:27:19;;;;;;;17.50;14.00;;;;;;;10.96;97.52;98532.41;105930;1254;61762;-76
2023/11/04 01:29:47;;;;;;;16.80;14.90;;;;;;;11.04;97.45;98535.13;106171;1251;61091;-80
2023/11/04 01:32:14;;;;;;;18.30;15.90;;;;;;;11.01;97.46;98541.42;105955;1260;72018;-75
2023/11/04 01:34:41;;;;;;;18.40;15.30;;;;;;;11.00;97.47;98579.48;106074;1256;70235;-80
2023/11/04 01:37:09;;;;;;;19.00;15.90;;;;;;;11.07;97.44;98594.41;105926;1254;72868;-77
2023/11/04 01:39:38;;;;;;;19.00;16.40;;;;;;;11.12;97.05;98574.29;106555;1251;61357;-80
2023/11/04 01:42:06;;;;;;;20.60;17.80;;;;;;;11.09;97.11;98576.03;107594;1258;60527;-79
2023/11/04 01:44:34;;;;;;;18.30;16.10;;;;;;;11.07;97.53;98579.95;106976;1256;72568;-76
2023/11/04 01:47:01;;;;;;;21.00;16.10;;;;;;;11.12;97.35;98555.84;106575;1257;68998;-74
2023/11/04 01:49:29;;;;;;;18.50;16.60;;;;;;;11.17;97.14;98548.66;106426;1256;72732;-76
2023/11/04 01:51:56;;;;;;;23.30;18.80;;;;;;;11.14;97.21;98555.39;106131;1253;60641;-75
2023/11/04 01:54:24;;;;;;;19.60;16.20;;;;;;;11.10;97.31;98554.60;106048;1257;60839;-76
2023/11/04 01:56:52;;;;;;;19.30;16.10;;;;;;;11.17;97.31;98563.27;105680;1260;72905;-74
2023/11/04 01:59:20;;;;;;;22.40;18.30;;;;;;;11.22;97.22;98561.63;105236;1260;70104;-75
2023/11/04 02:01:48;;;;;;;22.90;19.50;;;;;;;11.18;97.27;98578.39;105878;1257;72720;-73
2023/11/04 02:04:16;;;;;;;20.00;16.90;;;;;;;11.15;97.51;98589.65;105657;1256;60939;-74
2023/11/04 02:06:44;;;;;;;20.80;17.00;;;;;;;11.21;97.64;98590.06;106028;1259;60480;-76
2023/11/04 02:09:12;;;;;;;20.60;18.50;;;;;;;11.25;97.23;98593.13;106100;1254;72605;-76
2023/11/04 02:11:39;;;;;;;21.90;19.30;;;;;;;11.23;97.52;98599.42;105976;1258;68996;-77
2023/11/04 02:14:09;;;;;;;21.20;18.70;;;;;;;11.22;97.45;98594.80;105970;1254;71916;-74
2023/11/04 02:16:36;;;;;;;19.60;16.50;;;;;;;11.30;97.27;98602.38;105846;1254;62048;-79
2023/11/04 02:19:05;;;;;;;23.40;19.30;;;;;;;11.34;97.01;98595.48;105961;1256;60396;-78
2023/11/04 02:21:33;;;;;;;22.20;19.80;;;;;;;11.33;97.21;98582.02;106147;1254;74178;-77
2023/11/04 02:24:00;;;;;;;20.30;17.30;;;;;;;11.31;97.28;98580.27;105852;1259;70473;-78
2023/11/04 02:26:28;;;;;;;20.80;16.60;;;;;;;11.38;96.97;98571.98;106051;1257;72670;-78
2023/11/04 02:28:57;;;;;;;20.60;18.50;;;;;;;11.44;96.84;98573.50;105455;1257;60412;-77
2023/11/04 02:31:24;;;;;;;22.60;18.40;;;;;;;11.40;96.81;98567.41;105947;1256;60323;-77
2023/11/04 02:33:51;;;;;;;20.30;17.00;;;;;;;11.36;97.05;98571.81;106053;1255;73982;-75
2023/11/04 02:36:19;;;;;;;19.50;17.10;;;;;;;11.43;96.90;98581.59;106058;1255;70201;-77
2023/11/04 02:38:47;;;;;;;20.30;18.20;;;;;;;11.47;96.73;98597.55;105819;1257;71407;-79
2023/11/04 02:41:16;;;;;;;20.20;17.60;;;;;;;11.42;96.91;98591.45;105798;1259;60529;-77
2023/11/04 02:43:43;;;;;;;19.50;16.50;;;;;;;11.38;96.94;98570.63;105869;1256;60488;-74
2023/11/04 02:46:10;;;;;;;21.00;17.60;;;;;;;11.45;96.83;98585.08;105820;1254;72716;-75
2023/11/04 02:48:38;;;;;;;22.40;18.50;;;;;;;11.44;96.98;98607.33;105760;1260;68982;-77
2023/11/04 02:51:06;;;;;;;22.30;17.20;;;;;;;11.39;97.56;98599.09;105917;1255;72724;-78
2023/11/04 02:53:34;;;;;;;20.70;16.30;;;;;;;11.39;97.61;98596.11;105995;1254;61742;-74
2023/11/04 02:56:01;;;;;;;20.80;16.10;;;;;;;11.46;97.34;98584.39;105826;1259;60367;-73
2023/11/04 02:58:28;;;;;;;22.00;17.20;;;;;;;11.52;97.27;98587.88;105995;1254;72561;-74
2023/11/04 03:00:57;;;;;;;21.70;18.00;;;;;;;11.50;97.50;98589.39;106162;1260;68773;-76
2023/11/04 03:03:27;;;;;;;19.60;16.00;;;;;;;11.48;97.68;98586.63;105861;1258;70541;-72
2023/11/04 03:05:55;;;;;;;20.20;16.70;;;;;;;11.53;97.84;98589.79;105617;1254;60407;-74
2023/11/04 03:08:24;;;;;;;20.90;17.20;;;;;;;11.55;97.61;98586.92;105868;1257;60594;-74
2023/11/04 03:10:52;;;;;;;25.10;19.30;;;;;;;11.48;97.82;98577.19;105899;1266;73841;-75
2023/11/04 03:13:19;;;;;;;20.40;16.30;;;;;;;11.47;98.04;98577.15;105881;1254;70795;-75
2023/11/04 03:15:47;;;;;;;21.00;17.20;;;;;;;11.55;97.93;98572.66;105749;1257;71691;-72
2023/11/04 03:18:15;;;;;;;22.00;19.40;;;;;;;11.60;97.97;98564.23;105599;1254;60514;-74
2023/11/04 03:20:42;;;;;;;23.10;18.30;;;;;;;11.58;98.24;98556.70;105629;1259;60355;-75
2023/11/04 03:23:10;;;;;;;20.80;17.40;;;;;;;11.57;98.40;98563.77;105435;1251;72918;-73
2023/11/04 03:25:37;;;;;;;22.60;18.20;;;;;;;11.62;98.43;98570.86;105535;1254;70395;-72
2023/11/04 03:28:05;;;;;;;26.10;20.50;;;;;;;11.60;98.67;98556.95;105598;1257;74456;-73
2023/11/04 03:30:34;;;;;;;23.40;18.30;;;;;;;11.54;99.17;98556.05;105587;1254;61048;-73
2023/11/04 03:33:02;;;;;;;20.60;16.30;;;;;;;11.54;99.43;98561.69;105569;1258;60429;-76
2023/11/04 03:35:30;;;;;;;24.10;17.80;;;;;;;11.59;99.36;98556.95;106041;1254;72141;-78
2023/11/04 03:37:57;;;;;;;23.60;18.60;;;;;;;11.61;99.74;98554.94;106314;1256;70174;-77
2023/11/04 03:40:25;;;;;;;22.10;17.40;;;;;;;11.55;99.98;98550.67;105799;1254;71354;-78
2023/11/04 03:42:53;;;;;;;21.30;17.50;;;;;;;11.53;100.00;98544.05;105791;1254;60419;-78
2023/11/04 03:45:21;;;;;;;18.10;15.40;;;;;;;11.57;100.00;98537.30;105570;1254;60426;-78
2023/11/04 03:47:49;;;;;;;24.40;16.90;;;;;;;11.59;100.00;98534.08;105900;1254;72714;-77
2023/11/04 03:50:17;;;;;;;22.90;16.60;;;;;;;11.56;100.00;98539.27;105981;1257;70499;-78
2023/11/04 03:52:45;;;;;;;16.30;13.30;;;;;;;11.53;100.00;98535.74;106062;1254;72719;-79
2023/11/04 03:55:12;;;;;;;16.60;13.70;;;;;;;11.58;100.00;98519.30;106264;1251;60817;-78
2023/11/04 03:57:40;;;;;;;19.20;15.70;;;;;;;11.62;100.00;98523.51;107296;1251;60040;-78
2023/11/04 04:00:08;;;;;;;17.70;14.00;;;;;;;11.61;100.00;98519.41;106437;1254;74290;-76
2023/11/04 04:02:38;;;;;;;17.60;13.90;;;;;;;11.60;100.00;98509.23;106521;1253;69382;-77
2023/11/04 04:05:07;;;;;;;15.40;12.70;;;;;;;11.68;100.00;98514.21;106053;1254;71474;-77
2023/11/04 04:07:35;;;;;;;18.10;13.40;;;;;;;11.71;100.00;98514.75;106191;1254;60459;-77
2023/11/04 04:10:02;;;;;;;16.70;14.20;;;;;;;11.69;100.00;98523.92;106380;1254;60374;-77
2023/11/04 04:12:30;;;;;;;18.90;14.00;;;;;;;11.67;100.00;98528.92;105545;1253;72642;-76
2023/11/04 04:14:57;;;;;;;20.20;14.30;;;;;;;11.72;100.00;98525.23;105620;1257;68888;-73
2023/11/04 04:17:24;;;;;;;17.60;14.80;;;;;;;11.77;100.00;98521.05;105551;1260;72821;-78
2023/11/04 04:19:52;;;;;;;21.70;16.60;;;;;;;11.75;100.00;98533.54;105991;1254;60460;-72
2023/11/04 04:22:19;;;;;;;20.60;16.70;;;;;;;11.70;100.00;98537.59;105514;1257;60447;-76
2023/11/04 04:24:47;;;;;;;22.90;17.60;;;;;;;11.75;100.00;98527.16;105553;1251;72942;-76
2023/11/04 04:27:14;;;;;;;21.70;17.60;;;;;;;11.79;100.00;98524.69;105597;1257;68844;-74
2023/11/04 04:29:41;;;;;;;24.60;20.20;;;;;;;11.74;100.00;98524.65;105516;1258;73795;-76
2023/11/04 04:32:09;;;;;;;25.00;18.10;;;;;;;11.69;100.00;98522.48;105557;1256;61732;-77
2023/11/04 04:34:36;;;;;;;26.40;18.00;;;;;;;11.75;100.00;98517.86;105536;1254;60579;-76
2023/11/04 04:37:04;;;;;;;25.40;18.80;;;;;;;11.81;100.00;98511.11;105506;1257;73878;-78
2023/11/04 04:39:31;;;;;;;26.90;21.10;;;;;;;11.80;100.00;98517.94;105923;1254;70602;-73
2023/11/04 04:41:58;;;;;;;26.70;19.40;;;;;;;11.76;100.00;98521.13;105842;1257;72055;-73
2023/11/04 04:44:26;;;;;;;23.90;18.90;;;;;;;11.80;100.00;98513.67;105658;1254;60784;-77
2023/11/04 04:46:55;;;;;;;24.80;18.30;;;;;;;11.86;100.00;98512.79;105917;1256;60439;-77
2023/11/04 04:49:23;;;;;;;25.50;21.10;;;;;;;11.84;100.00;98508.72;105587;1254;72724;-77
2023/11/04 04:51:51;;;;;;;29.10;20.80;;;;;;;11.81;100.00;98510.73;105999;1258;69235;-78
2023/11/04 04:54:18;;;;;;;30.60;22.10;;;;;;;11.85;100.00;98499.77;106007;1252;72645;-77
2023/11/04 04:56:46;;;;;;;25.00;19.70;;;;;;;11.89;100.00;98497.77;105903;1254;60428;-78
2023/11/04 04:59:13;;;;;;;27.20;20.90;;;;;;;11.86;100.00;98501.52;106841;1254;60397;-76
2023/11/04 05:01:41;;;;;;;25.30;19.10;;;;;;;11.85;100.00;98513.27;107403;1255;73103;-77
2023/11/04 05:04:09;;;;;;;24.00;17.60;;;;;;;11.88;100.00;98512.69;106165;1253;68772;-76
2023/11/04 05:06:36;;;;;;;23.60;18.80;;;;;;;11.90;100.00;98503.75;105877;1254;72617;-79
2023/11/04 05:09:04;;;;;;;28.50;21.30;;;;;;;11.87;100.00;98504.10;106956;1254;60440;-79
2023/11/04 05:11:32;;;;;;;28.10;19.70;;;;;;;11.84;100.00;98510.73;106316;1253;60417;-80
2023/11/04 05:13:59;;;;;;;24.20;17.80;;;;;;;11.85;100.00;98521.05;105909;1254;73879;-77
2023/11/04 05:16:27;;;;;;;23.20;18.00;;;;;;;11.94;100.00;98527.09;105836;1254;68822;-77
2023/11/04 05:18:55;;;;;;;23.80;18.80;;;;;;;11.98;100.00;98526.21;106126;1257;72195;-75
2023/11/04 05:21:25;;;;;;;27.50;19.70;;;;;;;11.94;100.00;98528.40;105567;1254;60732;-77
2023/11/04 05:23:53;;;;;;;25.20;18.70;;;;;;;11.91;100.00;98534.42;105936;1251;60526;-75
2023/11/04 05:26:21;;;;;;;24.40;17.20;;;;;;;11.97;100.00;98535.02;105720;1254;73947;-76
2023/11/04 05:28:49;;;;;;;24.00;19.10;;;;;;;12.01;100.00;98525.81;106206;1254;68745;-74
2023/11/04 05:31:17;;;;;;;22.10;17.60;;;;;;;11.97;100.00;98532.52;106122;1257;71444;-74
2023/11/04 05:33:44;;;;;;;22.90;16.20;;;;;;;11.94;100.00;98542.19;106045;1256;60428;-74
2023/11/04 05:36:12;;;;;;;26.00;17.70;;;;;;;12.00;100.00;98543.50;106035;1256;60409;-73
2023/11/04 05:38:40;;;;;;;26.10;18.70;;;;;;;12.05;100.00;98548.23;105990;1253;74165;-74
2023/11/04 05:41:07;;;;;;;24.30;19.70;;;;;;;12.01;100.00;98558.65;105985;1254;69032;-76
2023/11/04 05:43:35;;;;;;;21.60;15.80;;;;;;;12.00;100.00;98555.20;106033;1256;72512;-75
2023/11/04 05:46:06;;;;;;;23.10;17.80;;;;;;;12.04;100.00;98548.00;105485;1254;60742;-75
2023/11/04 05:48:35;;;;;;;23.80;18.40;;;;;;;11.99;100.00;98540.98;106202;1256;61203;-74
2023/11/04 05:51:03;;;;;;;24.30;17.80;;;;;;;11.96;100.00;98549.64;106037;1255;72978;-75
2023/11/04 05:53:31;;;;;;;22.50;17.20;;;;;;;12.03;100.00;98551.60;106054;1254;69558;-77
2023/11/04 05:55:58;;;;;;;23.70;18.00;;;;;;;12.08;100.00;98542.71;105996;1257;71796;-76
2023/11/04 05:58:26;;;;;;;24.30;19.40;;;;;;;12.03;100.00;98548.61;106045;1251;60461;-79
2023/11/04 06:00:53;;;;;;;23.80;17.30;;;;;;;11.99;100.00;98546.82;105988;1256;60419;-76
2023/11/04 06:03:21;;;;;;;20.60;16.70;;;;;;;12.06;100.00;98545.70;106044;1251;75144;-75
2023/11/04 06:05:51;;;;;;;22.90;17.30;;;;;;;12.11;100.00;98543.81;106409;1256;68793;-80
2023/11/04 06:08:19;;;;;;;23.60;19.30;;;;;;;12.11;100.00;98551.52;106326;1254;71725;-79
2023/11/04 06:10:47;;;;;;;25.10;19.20;;;;;;;12.08;100.00;98550.41;106118;1255;60455;-78
2023/11/04 06:13:14;;;;;;;22.30;16.00;;;;;;;12.13;100.00;98558.06;106617;1253;60454;-78
2023/11/04 06:15:42;;;;;;;20.80;17.40;;;;;;;12.21;100.00;98563.66;107073;1254;72792;-80
2023/11/04 06:18:09;;;;;;;23.70;18.20;;;;;;;12.19;100.00;98564.89;107267;1253;69137;-74
2023/11/04 06:20:37;;;;;;;20.20;16.00;;;;;;;12.14;100.00;98556.34;107829;1254;72749;-80
2023/11/04 06:23:04;;;;;;;24.70;17.40;;;;;;;12.19;100.00;98562.39;108741;1253;60692;-81
2023/11/04 06:25:31;;;;;;;23.70;18.10;;;;;;;12.23;100.00;98563.09;108946;1253;60910;-81
2023/11/04 06:27:59;;;;;;;24.80;19.00;;;;;;;12.20;100.00;98565.09;109026;1253;72566;-79
2023/11/04 06:30:26;;;;;;;20.40;15.80;;;;;;;12.20;100.00;98560.02;108925;1253;69001;-79
2023/11/04 06:32:54;;;;;;;22.30;16.50;;;;;;;12.29;100.00;98549.69;108529;1253;73522;-80
2023/11/04 06:35:21;;;;;;;21.80;17.30;;;;;;;12.37;100.00;98550.56;108533;1254;59263;-79
2023/11/04 06:37:48;;;;;;;23.50;17.10;;;;;;;12.37;100.00;98554.41;108409;1257;60438;-77
2023/11/04 06:40:16;;;;;;;22.80;16.40;;;;;;;12.37;100.00;98551.34;108310;1253;72887;-80
2023/11/04 06:42:43;;;;;;;19.20;14.60;;;;;;;12.45;100.00;98538.29;108614;1253;68867;-77
2023/11/04 06:45:11;;;;;;;20.50;17.10;;;;;;;12.53;100.00;98534.58;108531;1252;72193;-78
2023/11/04 06:47:38;;;;;;;20.70;16.30;;;;;;;12.54;100.00;98527.95;108532;1253;60455;-80
2023/11/04 06:50:06;;;;;;;20.20;14.50;;;;;;;12.55;100.00;98536.86;109171;1252;59029;-80
2023/11/04 06:52:34;;;;;;;17.60;14.40;;;;;;;12.63;100.00;98548.15;109065;1253;75200;-79
2023/11/04 06:55:01;;;;;;;19.20;15.40;;;;;;;12.66;100.00;98544.38;108926;1253;71034;-78
2023/11/04 06:57:29;;;;;;;19.50;15.70;;;;;;;12.63;100.00;98537.98;108789;1253;71496;-78
2023/11/04 06:59:56;;;;;;;20.40;15.90;;;;;;;12.61;100.00;98533.85;108469;1253;60602;-78
2023/11/04 07:02:24;;;;;;;18.70;15.00;;;;;;;12.66;100.00;98541.55;107796;1253;172054;-78
2023/11/04 07:05:48;;;;;;;21.70;17.50;;;;;;;12.70;100.00;98540.54;104616;1291;599758;-78
2023/11/04 07:08:16;;;;;;;22.70;17.30;;;;;;;12.63;100.00;98536.27;107443;1266;58879;-79
2023/11/04 07:10:45;;;;;;;19.10;15.10;;;;;;;12.60;100.00;98543.24;107209;1266;60071;-80
2023/11/04 07:13:13;;;;;;;19.80;15.30;;;;;;;12.66;100.00;98537.81;107840;1267;71009;-80
2023/11/04 07:15:43;;;;;;;21.30;16.80;;;;;;;12.70;100.00;98541.15;108202;1266;69100;-77
2023/11/04 07:18:13;;;;;;;25.60;17.80;;;;;;;12.67;100.00;98546.02;107828;1267;71433;-79
2023/11/04 07:20:42;;;;;;;23.10;16.50;;;;;;;12.65;100.00;98550.04;107886;1264;60831;-77
2023/11/04 07:23:12;;;;;;;22.00;16.50;;;;;;;12.68;100.00;98542.96;108514;1264;58761;-79
2023/11/04 07:25:40;;;;;;;24.60;18.10;;;;;;;12.73;100.00;98537.13;108247;1263;70982;-79
2023/11/04 07:28:07;;;;;;;20.50;17.90;;;;;;;12.70;100.00;98540.17;108290;1264;68974;-78
2023/11/04 07:30:37;;;;;;;22.10;18.10;;;;;;;12.68;100.00;98542.72;108402;1264;73913;-77
2023/11/04 07:33:05;;;;;;;24.40;18.00;;;;;;;12.72;100.00;98534.96;107934;1264;60409;-79
2023/11/04 07:35:32;;;;;;;25.50;18.00;;;;;;;12.76;100.00;98531.09;107673;1264;59230;-78
2023/11/04 07:38:00;;;;;;;26.60;19.40;;;;;;;12.71;100.00;98535.09;107843;1264;73021;-79
2023/11/04 07:40:27;;;;;;;23.00;17.90;;;;;;;12.67;100.00;98535.35;108130;1264;69324;-78
2023/11/04 07:42:55;;;;;;;22.20;17.40;;;;;;;12.74;100.00;98536.83;108222;1264;71505;-78
2023/11/04 07:45:22;;;;;;;21.60;17.10;;;;;;;12.83;100.00;98533.89;107907;1265;59116;-78
2023/11/04 07:47:53;;;;;;;23.60;18.30;;;;;;;12.83;100.00;98531.76;107421;1263;59151;-77
2023/11/04 07:50:20;;;;;;;18.00;15.70;;;;;;;12.79;100.00;98535.09;106093;1267;73186;-80
2023/11/04 07:52:48;;;;;;;18.60;14.60;;;;;;;12.81;100.00;98520.63;107863;1263;70339;-79
2023/11/04 07:55:25;;;;;;;18.90;16.30;;;;;;;12.87;100.00;98506.31;108595;1264;71833;-79
2023/11/04 07:57:52;;;;;;;17.60;15.70;;;;;;;12.87;100.00;98521.98;107738;1268;59736;-76
2023/11/04 08:00:20;;;;;;;20.90;16.70;;;;;;;12.86;100.00;98516.20;106118;1266;59357;-78
2023/11/04 08:02:48;;;;;;;19.00;17.00;;;;;;;12.93;100.00;98517.52;106483;1258;73041;-79
2023/11/04 08:05:15;;;;;;;21.80;19.00;;;;;;;12.97;100.00;98519.34;105982;1258;68680;-78
2023/11/04 08:07:43;;;;;;;23.60;17.80;;;;;;;12.93;100.00;98514.16;105909;1254;72878;-80
2023/11/04 08:10:10;;;;;;;18.40;15.90;;;;;;;12.92;100.00;98508.41;106117;1254;61674;-78
2023/11/04 08:12:38;;;;;;;18.70;15.90;;;;;;;12.96;100.00;98512.82;106234;1253;59904;-77
2023/11/04 08:15:05;;;;;;;19.00;16.40;;;;;;;12.99;100.00;98512.02;106035;1256;71830;-79
2023/11/04 08:17:33;;;;;;;19.50;17.50;;;;;;;12.96;100.00;98517.14;105843;1257;70086;-78
2023/11/04 08:20:03;;;;;;;18.00;15.90;;;;;;;12.92;100.00;98524.61;105885;1258;71325;-78
2023/11/04 08:22:31;;;;;;;17.30;15.00;;;;;;;12.97;100.00;98535.13;106036;1255;61724;-77
2023/11/04 08:24:59;;;;;;;18.80;15.50;;;;;;;12.99;100.00;98532.70;106014;1254;59650;-77
2023/11/04 08:27:26;;;;;;;22.20;16.20;;;;;;;12.94;100.00;98533.34;106828;1257;71790;-77
2023/11/04 08:29:54;;;;;;;19.70;16.50;;;;;;;12.90;100.00;98533.11;106141;1260;70170;-79
2023/11/04 08:32:21;;;;;;;18.20;14.90;;;;;;;12.92;100.00;98528.72;105734;1256;72675;-78
2023/11/04 08:34:49;;;;;;;21.70;17.70;;;;;;;12.94;100.00;98520.70;105709;1256;59977;-80
2023/11/04 08:37:16;;;;;;;21.40;17.60;;;;;;;12.91;100.00;98515.27;105877;1254;60154;-77
2023/11/04 08:39:43;;;;;;;19.90;16.50;;;;;;;12.89;100.00;98510.52;105960;1254;71829;-80
2023/11/04 08:42:11;;;;;;;22.50;17.70;;;;;;;12.96;100.00;98502.77;105820;1254;69986;-80
2023/11/04 08:44:38;;;;;;;22.70;19.00;;;;;;;13.01;100.00;98495.90;106022;1254;71435;-78
2023/11/04 08:47:06;;;;;;;24.50;19.80;;;;;;;13.02;100.00;98497.36;107587;1254;59627;-78
2023/11/04 08:49:33;;;;;;;21.60;18.50;;;;;;;13.04;100.00;98505.56;106028;1254;59574;-78
2023/11/04 08:52:01;;;;;;;22.10;18.20;;;;;;;13.13;100.00;98518.09;105811;1254;70800;-77
2023/11/04 08:54:28;;;;;;;22.60;18.10;;;;;;;13.23;100.00;98515.38;106071;1254;70029;-80
2023/11/04 08:56:56;;;;;;;23.90;20.40;;;;;;;13.28;100.00;98505.08;105824;1256;71496;-80
2023/11/04 08:59:23;;;;;;;23.70;19.40;;;;;;;13.31;100.00;98500.80;105891;1254;62400;-77
2023/11/04 09:01:51;;;;;;;24.00;17.90;;;;;;;13.34;100.00;98494.60;105795;1256;60079;-81
2023/11/04 09:04:18;;;;;;;24.40;18.90;;;;;;;13.41;100.00;98491.52;105653;1256;72911;-79
2023/11/04 09:06:55;;;;;;;23.80;18.60;;;;;;;13.41;100.00;98491.11;105674;1260;68814;-78
2023/11/04 09:09:23;;;;;;;25.30;20.20;;;;;;;13.33;100.00;98492.27;106372;1255;72678;-80
2023/11/04 09:11:55;;;;;;;21.50;18.10;;;;;;;13.28;100.00;98489.89;107117;1260;61820;-80
2023/11/04 09:14:23;;;;;;;24.20;18.60;;;;;;;13.33;100.00;98476.02;106509;1254;59357;-77
2023/11/04 09:16:51;;;;;;;20.50;17.70;;;;;;;13.38;100.00;98477.02;106055;1254;72669;-78
2023/11/04 09:19:18;;;;;;;28.30;21.90;;;;;;;13.40;100.00;98476.30;106116;1254;70248;-79
2023/11/04 09:21:46;;;;;;;26.00;20.50;;;;;;;13.37;100.00;98475.02;105961;1256;71782;-80
2023/11/04 09:24:14;;;;;;;30.40;20.70;;;;;;;13.33;100.00;98470.73;105939;1256;61882;-78
2023/11/04 09:26:41;;;;;;;26.10;19.30;;;;;;;13.36;100.00;98466.52;105738;1254;60361;-80
2023/11/04 09:29:09;;;;;;;26.00;20.60;;;;;;;13.41;100.00;98463.20;105815;1254;71388;-77
2023/11/04 09:31:36;;;;;;;30.60;22.60;;;;;;;13.39;100.00;98456.03;105722;1258;68880;-80
2023/11/04 09:34:07;;;;;;;29.30;21.70;;;;;;;13.33;100.00;98455.96;105638;1255;72665;-78
2023/11/04 09:36:35;;;;;;;28.80;22.30;;;;;;;13.36;100.00;98453.55;105747;1256;61640;-80
2023/11/04 09:39:04;;;;;;;35.40;24.40;;;;;;;13.41;100.00;98447.36;105678;1254;59994;-81
2023/11/04 09:41:32;;;;;;;31.90;24.50;;;;;;;13.40;100.00;98451.64;105784;1254;73071;-77
2023/11/04 09:44:04;;;;;;;29.40;21.20;;;;;;;13.35;100.00;98454.23;106128;1260;68858;-79
2023/11/04 09:46:31;;;;;;;30.10;19.40;;;;;;;13.40;100.00;98439.05;106528;1260;72803;-76
2023/11/04 09:48:59;;;;;;;24.40;18.30;;;;;;;13.46;100.00;98433.16;105904;1258;59613;-78
2023/11/04 09:51:28;;;;;;;25.50;18.70;;;;;;;13.45;100.00;98435.63;105624;1258;59545;-80
2023/11/04 09:53:59;;;;;;;23.80;18.10;;;;;;;13.42;100.00;98424.45;105774;1256;71775;-80
2023/11/04 09:56:26;;;;;;;20.30;15.00;;;;;;;13.48;100.00;98420.45;105653;1255;70056;-78
2023/11/04 09:58:54;;;;;;;19.80;14.70;;;;;;;13.55;100.00;98409.92;105820;1260;71385;-79
2023/11/04 10:01:21;;;;;;;20.90;16.80;;;;;;;13.55;100.00;98403.81;105661;1257;59653;-77
2023/11/04 10:03:49;;;;;;;17.30;15.50;;;;;;;13.50;100.00;98399.25;105742;1255;60228;-78
2023/11/04 10:06:17;;;;;;;14.00;11.80;;;;;;;13.54;100.00;98398.36;105658;1256;73070;-77
2023/11/04 10:08:46;;;;;;;15.70;12.70;;;;;;;13.59;100.00;98397.66;105862;1258;70765;-76
2023/11/04 10:11:14;;;;;;;16.00;13.10;;;;;;;13.59;100.00;98401.84;106058;1260;71893;-77
2023/11/04 10:13:41;;;;;;;15.90;11.60;;;;;;;13.55;100.00;98397.90;105528;1254;61732;-78
2023/11/04 10:16:09;;;;;;;12.40;10.70;;;;;;;13.60;100.00;98395.92;105744;1256;60056;-76
2023/11/04 10:18:37;;;;;;;12.70;10.20;;;;;;;13.68;100.00;98387.63;105931;1254;71989;-75
2023/11/04 10:21:06;;;;;;;12.90;10.70;;;;;;;13.70;100.00;98387.89;105937;1254;71103;-76
2023/11/04 10:23:34;;;;;;;13.20;9.40;;;;;;;13.72;100.00;98385.91;105707;1260;74907;-75
2023/11/04 10:26:03;;;;;;;16.80;11.20;;;;;;;13.78;100.00;98380.18;105637;1254;61679;-76
2023/11/04 10:28:33;;;;;;;14.90;11.60;;;;;;;13.85;100.00;98377.96;105744;1258;60480;-78
2023/11/04 10:31:05;;;;;;;15.90;12.40;;;;;;;13.84;100.00;98378.42;105905;1254;71830;-80
2023/11/04 10:33:37;;;;;;;15.50;12.00;;;;;;;13.84;100.00;98376.70;106195;1258;69321;-75
2023/11/04 10:36:06;;;;;;;17.30;12.60;;;;;;;13.89;100.00;98376.55;105934;1254;74955;-78
2023/11/04 10:38:38;;;;;;;17.20;14.10;;;;;;;13.97;100.00;98366.04;106861;1260;60543;-72
2023/11/04 10:41:06;;;;;;;21.70;17.70;;;;;;;13.94;100.00;98358.92;105398;1260;59639;-72
2023/11/04 10:43:48;;;;;;;22.90;17.20;;;;;;;13.89;100.00;98351.50;105552;1260;73399;-72
2023/11/04 10:46:17;;;;;;;22.30;17.00;;;;;;;13.91;100.00;98346.02;105689;1254;72517;-70
2023/11/04 10:48:52;;;;;;;23.80;18.30;;;;;;;13.92;100.00;98340.76;105758;1256;71461;-71
2023/11/04 10:51:28;;;;;;;27.70;20.10;;;;;;;13.90;100.00;98331.55;105655;1260;61013;-71
2023/11/04 10:54:11;;;;;;;27.20;19.20;;;;;;;13.83;100.00;98326.57;105253;1254;61283;-72
2023/11/04 10:57:12;;;;;;;22.70;16.80;;;;;;;13.83;100.00;98325.22;105602;1260;72355;-69
2023/11/04 10:59:51;;;;;;;24.00;17.00;;;;;;;13.90;100.00;98327.56;105639;1260;71039;-69
2023/11/04 11:02:19;;;;;;;24.70;17.70;;;;;;;13.91;100.00;98339.75;105389;1260;71459;-69
2023/11/04 11:04:46;;;;;;;23.60;16.70;;;;;;;13.86;100.00;98342.88;105243;1256;61778;-72
2023/11/04 11:07:15;;;;;;;20.30;15.50;;;;;;;13.87;100.00;98339.55;105719;1258;60022;-73
2023/11/04 11:09:43;;;;;;;19.10;15.20;;;;;;;13.90;100.00;98331.04;105601;1259;73080;-70